Time;durP1;ratioP1;P1;durP2;ratioP2;P2;SDS_P1;SDS_P2;PMS_P1;PMS_P2;Temp;Humidity;BMP_temperature;BMP_pressure;BME280_temperature;BME280_humidity;BME280_pressure;Samples;Min_cycle;Max_cycle;Signal;HPM_P1;HPM_P2
2022/06/19 00:02:18;;;;;;;4.22;2.35;;;;;;;17.35;78.75;101231.09;4932339;29;20177;-76
2022/06/19 00:04:48;;;;;;;2.30;1.70;;;;;;;17.30;79.18;101245.88;4933546;29;20052;-76
2022/06/19 00:07:17;;;;;;;2.38;1.63;;;;;;;17.28;79.77;101242.34;4933647;29;20047;-77
2022/06/19 00:09:46;;;;;;;2.70;1.50;;;;;;;17.16;79.85;101239.63;4938699;28;20055;-77
2022/06/19 00:12:17;;;;;;;1.83;1.50;;;;;;;17.09;80.01;101243.06;4933931;29;20054;-76
2022/06/19 00:14:46;;;;;;;2.73;1.30;;;;;;;17.07;80.85;101236.94;4938969;29;20486;-76
2022/06/19 00:17:15;;;;;;;2.33;1.60;;;;;;;17.08;81.41;101241.28;4940047;29;20490;-76
2022/06/19 00:19:44;;;;;;;3.45;1.90;;;;;;;17.10;81.49;101236.94;4929616;29;20135;-75
2022/06/19 00:22:13;;;;;;;3.00;1.77;;;;;;;17.11;80.27;101242.19;4923863;29;20057;-76
2022/06/19 00:24:41;;;;;;;2.55;1.30;;;;;;;17.15;80.12;101241.34;4925358;29;20076;-76
2022/06/19 00:27:10;;;;;;;2.10;1.55;;;;;;;17.18;79.45;101245.75;4926629;29;20060;-75
2022/06/19 00:29:40;;;;;;;2.20;1.40;;;;;;;17.21;77.96;101248.41;4936726;29;20059;-75
2022/06/19 00:32:09;;;;;;;3.33;2.05;;;;;;;17.23;78.90;101245.81;4919777;29;20048;-75
2022/06/19 00:34:38;;;;;;;3.17;1.52;;;;;;;17.25;79.86;101246.66;4921159;29;20108;-75
2022/06/19 00:37:07;;;;;;;4.88;1.88;;;;;;;17.21;80.02;101244.91;4933867;29;20566;-75
2022/06/19 00:39:39;;;;;;;1.83;1.40;;;;;;;17.28;80.34;101255.44;4934929;29;20043;-75
2022/06/19 00:42:10;;;;;;;5.23;1.77;;;;;;;17.28;78.29;101255.44;4930066;29;20455;-75
2022/06/19 00:44:40;;;;;;;1.98;1.58;;;;;;;17.30;77.93;101251.09;4932681;29;20289;-75
2022/06/19 00:47:16;;;;;;;4.00;1.75;;;;;;;17.29;75.10;101257.19;4933976;29;20051;-78
2022/06/19 00:49:49;;;;;;;2.78;1.80;;;;;;;17.30;71.27;101255.47;4934133;29;20047;-74
2022/06/19 00:52:20;;;;;;;3.45;2.22;;;;;;;17.30;71.64;101251.09;4930787;28;20048;-74
2022/06/19 00:54:53;;;;;;;3.05;2.10;;;;;;;17.31;72.23;101258.06;4922233;29;20167;-74
2022/06/19 00:57:23;;;;;;;3.60;2.30;;;;;;;17.29;70.37;101261.53;4922625;29;20569;-75
2022/06/19 00:59:59;;;;;;;4.28;2.45;;;;;;;17.25;69.14;101258.03;4934430;29;20060;-74
2022/06/19 01:02:27;;;;;;;4.20;2.22;;;;;;;17.23;65.73;101259.75;4929093;29;20521;-76
2022/06/19 01:04:57;;;;;;;4.25;2.38;;;;;;;17.20;62.90;101261.44;4932747;29;20051;-77
2022/06/19 01:07:27;;;;;;;5.47;2.20;;;;;;;17.15;63.97;101258.78;4933589;29;20059;-74
2022/06/19 01:09:56;;;;;;;3.80;2.40;;;;;;;17.12;64.57;101262.25;4930164;29;20052;-74
2022/06/19 01:12:26;;;;;;;3.30;2.40;;;;;;;17.11;65.29;101265.72;4932355;29;20051;-78
2022/06/19 01:15:03;;;;;;;3.75;2.25;;;;;;;17.09;62.33;101261.34;4932222;29;20136;-75
2022/06/19 01:17:35;;;;;;;3.15;2.28;;;;;;;17.05;62.98;101262.19;4941157;29;20130;-73
2022/06/19 01:20:04;;;;;;;3.35;2.17;;;;;;;17.04;64.63;101263.91;4928781;29;20480;-76
2022/06/19 01:22:39;;;;;;;3.95;2.30;;;;;;;17.04;65.27;101257.78;4926242;29;20044;-75
2022/06/19 01:25:13;;;;;;;5.22;2.70;;;;;;;17.06;65.46;101266.53;4923914;29;20581;-75
2022/06/19 01:30:33;;;;;;;3.65;2.35;;;;;;;17.10;65.19;101271.81;4933373;29;20065;-75
2022/06/19 01:33:05;;;;;;;4.32;2.38;;;;;;;17.12;63.26;101271.84;4932346;29;20060;-75
2022/06/19 01:35:37;;;;;;;5.20;2.60;;;;;;;17.12;62.73;101271.84;4934188;29;20562;-75
2022/06/19 01:38:11;;;;;;;4.03;2.20;;;;;;;17.08;64.88;101276.13;4931281;29;20122;-78
2022/06/19 01:40:43;;;;;;;4.35;2.42;;;;;;;17.05;61.62;101275.25;4932707;29;20227;-77
2022/06/19 01:43:12;;;;;;;3.78;2.40;;;;;;;17.01;60.96;101274.31;4932568;29;20478;-77
2022/06/19 01:45:45;;;;;;;4.00;2.35;;;;;;;16.95;60.94;101277.75;4932070;29;20051;-76
2022/06/19 01:48:14;;;;;;;4.10;2.75;;;;;;;16.92;61.19;101275.09;4932007;29;20044;-76
2022/06/19 01:50:45;;;;;;;4.30;2.80;;;;;;;16.90;63.27;101276.81;4933584;29;20048;-78
2022/06/19 01:53:21;;;;;;;7.05;2.80;;;;;;;16.87;63.09;101273.28;4932070;28;20463;-76
2022/06/19 01:55:52;;;;;;;4.43;2.53;;;;;;;16.83;64.63;101280.19;4932953;29;20048;-75
2022/06/19 01:58:24;;;;;;;4.40;2.33;;;;;;;16.79;64.63;101275.81;4932772;29;20047;-76
2022/06/19 02:00:53;;;;;;;3.20;2.30;;;;;;;16.78;65.05;101275.75;4933221;29;20052;-78
2022/06/19 02:03:27;;;;;;;3.65;2.30;;;;;;;16.76;64.63;101279.22;4931739;29;20545;-76
2022/06/19 02:05:57;;;;;;;5.45;2.47;;;;;;;16.76;63.23;101278.34;4933542;29;20048;-76
2022/06/19 02:08:29;;;;;;;3.55;2.30;;;;;;;16.71;65.21;101280.03;4933087;28;20040;-76
2022/06/19 02:11:00;;;;;;;3.60;2.30;;;;;;;16.67;63.95;101278.22;4933707;29;20055;-76
2022/06/19 02:13:30;;;;;;;2.90;2.20;;;;;;;16.64;61.64;101288.66;4933077;29;20047;-77
2022/06/19 02:15:59;;;;;;;3.40;2.13;;;;;;;16.62;63.93;101286.00;4934520;29;20055;-76
2022/06/19 02:18:31;;;;;;;3.88;2.53;;;;;;;16.62;63.93;101292.97;4931667;29;20051;-76
2022/06/19 02:20:59;;;;;;;3.20;2.38;;;;;;;16.58;63.93;101289.44;4934481;29;20056;-78
2022/06/19 02:23:32;;;;;;;3.15;2.17;;;;;;;16.55;63.27;101297.25;4929720;29;20059;-77
2022/06/19 02:26:05;;;;;;;3.92;2.30;;;;;;;16.53;63.57;101301.56;4931648;29;20123;-79
2022/06/19 02:28:35;;;;;;;;;;;;;;;16.44;65.20;101293.59;4931394;29;20407;-77
2022/06/19 02:31:06;;;;;;;3.17;2.25;;;;;;;16.48;65.58;101298.88;4932155;29;20416;-76
2022/06/19 02:33:40;;;;;;;5.20;2.65;;;;;;;16.47;64.04;101307.59;4930385;29;20107;-77
2022/06/19 02:36:33;;;;;;;3.97;2.13;;;;;;;16.46;64.52;101310.19;4931969;29;20111;-77
2022/06/19 02:39:14;;;;;;;3.65;2.50;;;;;;;16.44;62.96;101301.44;4926334;29;20123;-76
2022/06/19 02:41:51;;;;;;;3.45;2.00;;;;;;;16.44;65.01;101310.13;4930302;29;20123;-75
2022/06/19 02:44:19;;;;;;;4.25;2.35;;;;;;;16.42;65.81;101311.84;4932221;29;20051;-77
2022/06/19 02:46:48;;;;;;;3.90;2.20;;;;;;;16.41;66.91;101317.06;4928824;29;20051;-76
2022/06/19 02:49:17;;;;;;;3.95;2.55;;;;;;;16.39;65.40;101309.19;4930996;29;20102;-76
2022/06/19 02:51:45;;;;;;;4.18;2.20;;;;;;;16.40;65.33;101315.31;4931439;28;20056;-75
2022/06/19 02:54:14;;;;;;;4.93;2.25;;;;;;;16.38;65.98;101323.13;4932526;29;20052;-77
2022/06/19 02:56:44;;;;;;;5.10;2.47;;;;;;;16.36;64.78;101319.63;4932601;29;20111;-76
2022/06/19 02:59:13;;;;;;;2.72;1.90;;;;;;;16.33;63.69;101317.84;4931091;29;20055;-76
2022/06/19 03:01:41;;;;;;;5.25;2.70;;;;;;;16.31;65.36;101316.06;4930565;29;20051;-75
2022/06/19 03:04:19;;;;;;;3.38;2.50;;;;;;;16.29;65.85;101318.66;4932091;29;20062;-76
2022/06/19 03:06:47;;;;;;;4.30;2.10;;;;;;;16.27;66.39;101324.69;4931529;29;20449;-76
2022/06/19 03:09:16;;;;;;;5.38;2.25;;;;;;;16.22;65.66;101324.63;4933345;29;20498;-77
2022/06/19 03:11:46;;;;;;;3.42;2.28;;;;;;;16.16;66.86;101324.53;4932956;29;20714;-75
2022/06/19 03:14:15;;;;;;;5.45;2.67;;;;;;;16.13;66.48;101325.38;4935973;29;20055;-76
2022/06/19 03:16:45;;;;;;;4.13;2.60;;;;;;;16.11;66.00;101329.69;4931455;29;21019;-76
2022/06/19 03:19:13;;;;;;;3.10;2.25;;;;;;;16.06;66.81;101331.34;4950178;29;20051;-76
2022/06/19 03:21:42;;;;;;;3.30;1.80;;;;;;;16.02;67.29;101334.75;4929991;29;20047;-76
2022/06/19 03:24:11;;;;;;;4.20;1.95;;;;;;;15.96;67.01;101328.53;4932074;29;20206;-76
2022/06/19 03:26:40;;;;;;;4.03;2.15;;;;;;;15.91;66.79;101331.94;4927917;29;20051;-76
2022/06/19 03:29:10;;;;;;;2.67;1.90;;;;;;;15.88;65.85;101326.69;4930913;29;20059;-76
2022/06/19 03:31:39;;;;;;;3.00;1.92;;;;;;;15.85;65.54;101333.56;4932996;29;20043;-76
2022/06/19 03:34:07;;;;;;;4.10;1.77;;;;;;;15.82;65.50;101329.19;4936041;29;20051;-76
2022/06/19 03:36:36;;;;;;;2.88;1.73;;;;;;;15.78;66.09;101327.41;4930764;29;20107;-76
2022/06/19 03:39:04;;;;;;;2.92;1.77;;;;;;;15.76;67.33;101325.59;4933491;29;20047;-75
2022/06/19 03:41:33;;;;;;;3.10;1.85;;;;;;;15.74;65.95;101327.31;4939686;29;20070;-76
2022/06/19 03:44:01;;;;;;;3.10;1.92;;;;;;;15.69;66.46;101325.47;4933199;29;20048;-76
2022/06/19 03:46:32;;;;;;;3.67;1.73;;;;;;;15.68;68.70;101328.91;4932811;29;20549;-76
2022/06/19 03:49:00;;;;;;;5.57;2.03;;;;;;;15.65;70.86;101326.25;4935975;29;20100;-76
2022/06/19 03:51:29;;;;;;;3.85;1.63;;;;;;;15.59;72.43;101326.16;4936228;28;20059;-76
2022/06/19 03:53:58;;;;;;;2.75;1.60;;;;;;;15.53;72.25;101331.28;4930765;29;20116;-76
2022/06/19 03:56:30;;;;;;;2.65;1.60;;;;;;;15.46;71.62;101327.66;4939232;29;20048;-76
2022/06/19 03:58:58;;;;;;;4.20;1.55;;;;;;;15.39;72.09;101324.91;4935794;29;20047;-75
2022/06/19 04:01:29;;;;;;;4.95;1.60;;;;;;;15.37;72.78;101329.19;4929996;29;20103;-77
2022/06/19 04:04:00;;;;;;;4.07;1.77;;;;;;;15.36;72.73;101330.06;4935759;29;20048;-76
2022/06/19 04:06:30;;;;;;;4.18;1.77;;;;;;;15.33;72.54;101336.09;4932625;29;20040;-77
2022/06/19 04:09:00;;;;;;;2.92;1.95;;;;;;;15.32;74.35;101338.66;4935865;29;20051;-75
2022/06/19 04:11:29;;;;;;;2.60;1.55;;;;;;;15.27;75.15;101342.06;4927523;29;20059;-75
2022/06/19 04:13:58;;;;;;;2.72;1.65;;;;;;;15.23;74.53;101336.75;4933444;29;20051;-75
2022/06/19 04:16:29;;;;;;;3.13;1.85;;;;;;;15.16;77.94;101343.56;4928145;29;20529;-75
2022/06/19 04:19:01;;;;;;;3.83;1.77;;;;;;;15.07;77.99;101349.50;4952634;29;20043;-75
2022/06/19 04:21:31;;;;;;;4.30;1.90;;;;;;;15.06;79.91;101357.28;4937198;29;20052;-78
2022/06/19 04:24:03;;;;;;;4.55;1.98;;;;;;;15.01;78.47;101359.78;4933690;29;20112;-76
2022/06/19 04:26:34;;;;;;;3.00;2.05;;;;;;;15.01;80.26;101364.13;4923572;29;20055;-76
2022/06/19 04:29:03;;;;;;;3.33;1.80;;;;;;;14.97;78.75;101368.38;4934665;29;20056;-76
2022/06/19 04:31:31;;;;;;;4.32;2.47;;;;;;;14.98;79.83;101374.47;4933823;29;20063;-75
2022/06/19 04:34:02;;;;;;;2.70;1.67;;;;;;;14.98;78.63;101366.66;4941642;29;20505;-76
2022/06/19 04:36:31;;;;;;;3.80;2.15;;;;;;;14.98;79.89;101370.16;4935194;29;20513;-75
2022/06/19 04:39:00;;;;;;;4.03;1.60;;;;;;;14.96;81.20;101378.81;4934467;29;20056;-76
2022/06/19 04:41:31;;;;;;;3.45;1.95;;;;;;;14.92;81.86;101379.56;4930093;29;20048;-76
2022/06/19 04:44:01;;;;;;;6.93;2.20;;;;;;;14.90;82.72;101391.69;4932432;29;20629;-76
2022/06/19 04:46:30;;;;;;;5.90;2.20;;;;;;;14.89;82.11;101388.19;4928997;29;20056;-76
2022/06/19 04:49:01;;;;;;;3.13;1.67;;;;;;;14.87;83.08;101403.78;4927943;29;20051;-75
2022/06/19 04:51:29;;;;;;;3.90;2.40;;;;;;;14.83;82.04;101401.09;4932877;28;20084;-76
2022/06/19 04:53:58;;;;;;;3.33;1.92;;;;;;;14.80;82.46;101396.69;4928489;29;20052;-76
2022/06/19 04:56:26;;;;;;;6.70;2.33;;;;;;;14.73;81.92;101400.00;4933120;29;20052;-76
2022/06/19 04:58:55;;;;;;;4.30;2.92;;;;;;;14.66;80.81;101398.13;4928427;29;20123;-77
2022/06/19 05:01:28;;;;;;;4.63;2.30;;;;;;;14.61;83.19;101404.91;4933714;29;20048;-76
2022/06/19 05:04:00;;;;;;;4.47;2.35;;;;;;;14.57;85.46;101408.31;4929548;29;20489;-77
2022/06/19 05:06:30;;;;;;;4.63;2.85;;;;;;;14.49;83.36;101408.06;4925286;29;20088;-76
2022/06/19 05:08:59;;;;;;;6.93;3.28;;;;;;;14.42;83.80;101409.66;4926207;29;20094;-77
2022/06/19 05:11:31;;;;;;;5.03;2.53;;;;;;;14.35;84.49;101407.75;4927904;29;20055;-77
2022/06/19 05:14:00;;;;;;;5.13;3.15;;;;;;;14.31;83.77;101405.03;4927874;29;20091;-77
2022/06/19 05:16:29;;;;;;;3.90;2.97;;;;;;;14.28;84.58;101410.19;4928754;29;20047;-76
2022/06/19 05:18:58;;;;;;;4.30;3.40;;;;;;;14.16;85.23;101401.22;4943746;29;20051;-76
2022/06/19 05:21:29;;;;;;;7.13;3.28;;;;;;;14.27;85.49;101413.59;4934098;29;20051;-76
2022/06/19 05:23:58;;;;;;;5.80;3.13;;;;;;;14.28;85.64;101417.97;4934158;29;20052;-76
2022/06/19 05:26:29;;;;;;;3.28;2.50;;;;;;;14.21;85.46;101419.56;4941286;28;20110;-75
2022/06/19 05:28:58;;;;;;;4.28;2.90;;;;;;;14.15;85.09;101429.78;4933494;29;20107;-76
2022/06/19 05:31:28;;;;;;;6.70;3.35;;;;;;;14.13;86.19;101421.97;4930837;29;20123;-75
2022/06/19 05:33:57;;;;;;;3.78;2.70;;;;;;;14.14;84.47;101423.72;4925861;29;20043;-74
2022/06/19 05:36:28;;;;;;;3.15;2.13;;;;;;;14.15;83.85;101429.78;4932024;29;20052;-75
2022/06/19 05:38:59;;;;;;;4.22;2.45;;;;;;;14.15;83.17;101429.78;4927400;29;20058;-75
2022/06/19 05:41:30;;;;;;;4.95;3.00;;;;;;;14.18;85.53;101432.50;4931872;29;20044;-76
2022/06/19 05:43:58;;;;;;;4.88;3.20;;;;;;;14.20;86.50;101433.38;4925960;29;20048;-76
2022/06/19 05:46:27;;;;;;;5.43;3.67;;;;;;;14.20;87.15;101431.69;4925849;29;20132;-75
2022/06/19 05:48:55;;;;;;;4.60;2.55;;;;;;;14.23;86.29;101433.50;4932381;29;20047;-76
2022/06/19 05:51:26;;;;;;;3.55;1.80;;;;;;;14.24;85.43;101437.84;4932215;28;20047;-75
2022/06/19 05:53:56;;;;;;;3.13;1.70;;;;;;;14.27;84.28;101444.84;4933046;29;20051;-75
2022/06/19 05:56:27;;;;;;;4.65;2.63;;;;;;;14.26;84.11;101449.16;4933401;29;20560;-76
2022/06/19 05:58:56;;;;;;;3.08;1.80;;;;;;;14.27;84.35;101455.25;4932610;29;20107;-75
2022/06/19 06:01:28;;;;;;;3.25;1.80;;;;;;;14.25;83.85;101450.03;4933132;29;20043;-75
2022/06/19 06:03:56;;;;;;;3.78;1.95;;;;;;;14.22;83.60;101445.63;4928940;29;20130;-76
2022/06/19 06:06:28;;;;;;;3.55;2.35;;;;;;;14.22;84.62;101442.13;4936578;29;20091;-75
2022/06/19 06:08:58;;;;;;;4.00;2.20;;;;;;;14.20;85.36;101442.09;4931635;29;20617;-75
2022/06/19 06:11:28;;;;;;;5.40;2.10;;;;;;;14.19;85.00;101437.72;4933444;29;20523;-75
2022/06/19 06:13:57;;;;;;;3.53;2.17;;;;;;;14.19;85.38;101442.06;4932889;29;20585;-75
2022/06/19 06:16:26;;;;;;;5.05;1.95;;;;;;;14.20;85.59;101449.00;4932260;29;20125;-76
2022/06/19 06:18:54;;;;;;;3.53;2.17;;;;;;;14.21;86.57;101448.19;4937302;29;20056;-75
2022/06/19 06:21:25;;;;;;;3.83;2.33;;;;;;;14.21;85.52;101450.78;4918091;29;20052;-76
2022/06/19 06:23:55;;;;;;;4.43;2.65;;;;;;;14.21;85.83;101456.00;4922820;29;20111;-75
2022/06/19 06:26:26;;;;;;;4.97;2.30;;;;;;;14.21;85.03;101461.19;4931906;29;20074;-76
2022/06/19 06:28:58;;;;;;;4.18;2.40;;;;;;;14.19;85.75;101452.47;4916208;29;20513;-76
2022/06/19 06:31:27;;;;;;;6.30;3.08;;;;;;;14.13;85.96;101457.50;4917279;29;20106;-76
2022/06/19 06:33:56;;;;;;;5.70;3.17;;;;;;;14.02;86.30;101455.50;4921431;29;20512;-76
2022/06/19 06:36:24;;;;;;;6.32;3.53;;;;;;;13.99;86.12;101460.59;4929943;29;20134;-76
2022/06/19 06:38:53;;;;;;;6.55;3.83;;;;;;;13.99;86.22;101455.41;4932951;29;20047;-76
2022/06/19 06:41:22;;;;;;;4.68;3.05;;;;;;;14.02;87.45;101459.84;4920115;29;20048;-76
2022/06/19 06:43:50;;;;;;;3.97;2.65;;;;;;;14.06;88.14;101458.19;4932666;29;20050;-76
2022/06/19 06:46:23;;;;;;;5.60;3.05;;;;;;;14.08;87.80;101459.97;4930883;29;20050;-76
2022/06/19 06:48:53;;;;;;;5.05;2.33;;;;;;;14.07;88.27;101453.03;4922325;29;20099;-76
2022/06/19 06:51:25;;;;;;;4.85;2.72;;;;;;;14.04;89.18;101459.03;4931783;29;20060;-76
2022/06/19 06:53:55;;;;;;;5.20;2.63;;;;;;;14.03;89.26;101457.25;4934870;29;20059;-76
2022/06/19 06:56:24;;;;;;;6.40;3.00;;;;;;;14.04;87.89;101458.13;4933642;29;20059;-75
2022/06/19 06:58:53;;;;;;;8.20;3.35;;;;;;;14.02;87.61;101457.25;4926344;29;20044;-75
2022/06/19 07:01:24;;;;;;;7.28;3.70;;;;;;;14.05;87.60;101467.72;4928493;29;20117;-75
2022/06/19 07:03:55;;;;;;;7.07;3.53;;;;;;;14.01;87.67;101464.13;4932227;29;20075;-76
2022/06/19 07:06:24;;;;;;;8.70;3.78;;;;;;;13.95;87.57;101463.09;4930976;29;20115;-75
2022/06/19 07:08:52;;;;;;;5.05;3.05;;;;;;;13.89;89.48;101462.94;4930631;29;20055;-75
2022/06/19 07:11:24;;;;;;;4.32;2.88;;;;;;;13.83;91.44;101458.44;4931723;29;20063;-75
2022/06/19 07:13:53;;;;;;;6.32;2.78;;;;;;;13.83;92.74;101463.63;4931949;29;20052;-75
2022/06/19 07:16:23;;;;;;;7.13;2.85;;;;;;;13.81;96.32;101460.13;4929949;29;20872;-76
2022/06/19 07:18:52;;;;;;;9.23;2.97;;;;;;;13.77;97.07;101456.56;4941302;29;20102;-75
2022/06/19 07:21:21;;;;;;;4.50;2.55;;;;;;;13.77;98.32;101461.78;4931615;29;20051;-75
2022/06/19 07:23:49;;;;;;;8.95;3.55;;;;;;;13.78;98.02;101465.25;4931026;29;20044;-75
2022/06/19 07:26:20;;;;;;;6.90;3.47;;;;;;;13.76;97.15;101453.91;4932201;29;20052;-77
2022/06/19 07:28:49;;;;;;;8.25;3.40;;;;;;;13.73;96.06;101456.44;4929397;29;20487;-76
2022/06/19 07:31:17;;;;;;;7.13;3.55;;;;;;;13.71;95.19;101452.91;4930318;29;20056;-76
2022/06/19 07:33:47;;;;;;;7.53;3.55;;;;;;;13.82;95.05;101467.09;4924941;29;20486;-78
2022/06/19 07:36:19;;;;;;;5.82;3.78;;;;;;;13.80;94.00;101468.78;4931943;29;20517;-77
2022/06/19 07:38:48;;;;;;;7.83;3.37;;;;;;;13.77;94.71;101464.38;4925924;29;20083;-74
2022/06/19 07:41:16;;;;;;;5.20;3.40;;;;;;;13.79;94.32;101470.50;4928308;29;20055;-76
2022/06/19 07:43:45;;;;;;;7.30;3.95;;;;;;;13.82;95.00;101467.09;4925726;29;20056;-76
2022/06/19 07:46:14;;;;;;;7.13;3.45;;;;;;;13.81;94.78;101471.41;4932903;29;20048;-76
2022/06/19 07:51:27;;;;;;;6.57;3.50;;;;;;;13.79;95.82;101474.81;4901531;29;20062;-76
2022/06/19 07:53:56;;;;;;;6.97;3.05;;;;;;;13.78;96.48;101476.53;4927009;28;20091;-76
2022/06/19 07:56:24;;;;;;;6.07;3.40;;;;;;;13.80;96.37;101477.44;4932766;29;20044;-75
2022/06/19 07:58:53;;;;;;;8.27;2.80;;;;;;;13.82;97.01;101483.56;4928681;29;20055;-76
2022/06/19 08:01:21;;;;;;;5.43;3.45;;;;;;;13.84;97.83;101478.44;4929309;29;20044;-75
2022/06/19 08:03:50;;;;;;;8.68;3.08;;;;;;;13.84;98.09;101475.81;4929118;29;20044;-74
2022/06/19 08:06:26;;;;;;;5.43;2.83;;;;;;;13.78;98.01;101465.25;4928653;29;20562;-75
2022/06/19 08:08:55;;;;;;;9.18;3.55;;;;;;;13.85;97.79;101477.56;4933090;29;20598;-75
2022/06/19 08:11:24;;;;;;;6.60;3.22;;;;;;;13.84;98.99;101478.44;4927184;29;20052;-75
2022/06/19 08:13:52;;;;;;;10.43;3.22;;;;;;;13.83;99.41;101479.25;4928894;29;20127;-75
2022/06/19 08:16:21;;;;;;;7.35;3.88;;;;;;;13.81;99.20;101480.91;4929145;29;20052;-75
2022/06/19 08:18:49;;;;;;;6.60;3.17;;;;;;;13.77;100.00;101472.16;4946054;29;20079;-75
2022/06/19 08:21:18;;;;;;;5.90;2.90;;;;;;;13.79;100.00;101474.81;4935335;29;20577;-76
2022/06/19 08:23:48;;;;;;;5.65;3.10;;;;;;;13.79;100.00;101478.31;4934028;29;20494;-76
2022/06/19 08:26:16;;;;;;;7.80;3.67;;;;;;;13.78;100.00;101470.44;4934604;29;20521;-76
2022/06/19 08:28:48;;;;;;;5.10;3.03;;;;;;;13.77;100.00;101484.31;4934047;29;20064;-76
2022/06/19 08:31:17;;;;;;;5.73;2.90;;;;;;;13.76;100.00;101483.41;4932885;29;20138;-75
2022/06/19 08:33:45;;;;;;;9.23;3.13;;;;;;;13.75;100.00;101475.56;4932581;29;20055;-75
2022/06/19 08:36:14;;;;;;;5.72;3.10;;;;;;;13.70;100.00;101483.25;4934832;29;20052;-74
2022/06/19 08:38:51;;;;;;;5.30;2.83;;;;;;;13.67;100.00;101483.13;4932787;29;20059;-75
2022/06/19 08:41:44;;;;;;;5.75;3.30;;;;;;;13.68;100.00;101481.44;4934068;29;20052;-76
2022/06/19 08:44:32;;;;;;;4.38;2.50;;;;;;;13.68;100.00;101484.03;4929641;29;20494;-75
2022/06/19 08:47:14;;;;;;;5.40;3.28;;;;;;;13.69;100.00;101485.78;4937137;29;20652;-76
2022/06/19 08:49:57;;;;;;;4.53;2.63;;;;;;;13.68;100.00;101478.84;4931858;29;20051;-76
2022/06/19 08:52:30;;;;;;;;;;;;;;;13.69;100.00;101485.78;4929343;28;20489;-76
2022/06/19 08:55:11;;;;;;;7.60;2.80;;;;;;;13.68;100.00;101478.84;4934589;29;19930;-75
2022/06/19 08:57:52;;;;;;;4.53;2.78;;;;;;;13.67;100.00;101477.94;4934198;29;20115;-75
2022/06/19 09:00:27;;;;;;;5.13;2.72;;;;;;;13.67;100.00;101484.88;4933036;29;20498;-75
2022/06/19 09:03:07;;;;;;;5.65;2.95;;;;;;;13.67;100.00;101482.25;4931301;29;20052;-75
2022/06/19 09:05:47;;;;;;;3.85;2.78;;;;;;;13.66;100.00;101478.78;4933864;29;20055;-75
2022/06/19 09:08:41;;;;;;;6.38;3.17;;;;;;;13.65;100.00;101486.53;4930392;29;20105;-75
2022/06/19 09:11:24;;;;;;;4.20;2.38;;;;;;;13.57;100.00;101474.19;4947497;29;20066;-74
2022/06/19 09:14:13;;;;;;;4.70;2.88;;;;;;;13.64;100.00;101487.38;4936388;29;20417;-75
2022/06/19 09:16:47;;;;;;;5.35;2.95;;;;;;;13.64;100.00;101487.38;4926015;29;20047;-75
2022/06/19 09:19:21;;;;;;;3.63;2.65;;;;;;;13.63;100.00;101486.50;4943398;29;20047;-75
2022/06/19 09:22:07;;;;;;;7.13;3.00;;;;;;;13.61;100.00;101486.47;4923651;29;20052;-76
2022/06/19 09:24:56;;;;;;;5.35;2.58;;;;;;;13.62;100.00;101495.13;4923805;29;20099;-75
2022/06/19 09:27:32;;;;;;;6.03;3.03;;;;;;;13.60;100.00;101487.28;4926736;29;20439;-74
2022/06/19 09:30:05;;;;;;;5.88;3.05;;;;;;;13.60;100.00;101489.88;4925327;29;20052;-74
2022/06/19 09:32:39;;;;;;;5.75;3.10;;;;;;;13.59;100.00;101485.53;4932803;29;20048;-74
2022/06/19 09:35:14;;;;;;;5.95;3.17;;;;;;;13.59;100.00;101487.25;4933787;29;20060;-75
2022/06/19 09:37:52;;;;;;;5.72;3.15;;;;;;;13.57;100.00;101484.59;4932661;29;20055;-75
2022/06/19 09:40:25;;;;;;;6.60;3.22;;;;;;;13.56;100.00;101479.34;4931620;29;20138;-75
2022/06/19 09:43:02;;;;;;;7.10;3.65;;;;;;;13.55;100.00;101488.88;4938697;29;20051;-75
2022/06/19 09:45:36;;;;;;;8.65;3.22;;;;;;;13.54;100.00;101484.53;4939167;29;20051;-75
2022/06/19 09:48:11;;;;;;;5.03;3.03;;;;;;;13.53;100.00;101487.06;4931167;29;20483;-75
2022/06/19 09:50:52;;;;;;;4.70;2.90;;;;;;;13.51;100.00;101487.00;4931821;29;20498;-74
2022/06/19 09:53:27;;;;;;;6.65;3.85;;;;;;;13.52;100.00;101488.78;4928091;28;20442;-74
2022/06/19 09:56:00;;;;;;;8.75;3.88;;;;;;;13.51;100.00;101489.63;4933359;29;20601;-74
2022/06/19 09:58:36;;;;;;;6.68;3.85;;;;;;;13.49;100.00;101493.91;4927794;29;20088;-75
2022/06/19 10:01:06;;;;;;;9.35;3.97;;;;;;;13.47;100.00;101495.59;4930849;29;20698;-74
2022/06/19 10:03:40;;;;;;;7.13;3.50;;;;;;;13.44;100.00;101498.06;4929688;29;20554;-74
2022/06/19 10:06:14;;;;;;;7.57;4.10;;;;;;;13.43;100.00;101504.13;4933230;29;20549;-74
2022/06/19 10:08:47;;;;;;;8.10;3.85;;;;;;;13.42;100.00;101497.13;4934228;29;20099;-75
2022/06/19 10:11:19;;;;;;;6.97;4.00;;;;;;;13.39;100.00;101495.34;4938719;29;20047;-74
2022/06/19 10:13:54;;;;;;;7.80;3.47;;;;;;;13.38;100.00;101500.50;4931766;29;20131;-74
2022/06/19 10:16:29;;;;;;;6.25;3.38;;;;;;;13.36;100.00;101497.84;4928297;29;20059;-75
2022/06/19 10:18:59;;;;;;;6.55;3.70;;;;;;;13.37;100.00;101501.31;4939742;29;20658;-75
2022/06/19 10:24:27;;;;;;;4.97;2.38;;;;;;;13.33;100.00;101502.97;4934013;29;20062;-75
2022/06/19 10:27:02;;;;;;;3.90;2.40;;;;;;;13.29;100.00;101500.22;4935273;29;20051;-75
2022/06/19 10:29:45;;;;;;;5.53;2.63;;;;;;;13.25;100.00;101506.13;4940864;29;20517;-75
2022/06/19 10:32:37;;;;;;;6.03;3.08;;;;;;;13.25;100.00;101503.53;4930510;29;20051;-75
2022/06/19 10:35:16;;;;;;;4.65;2.78;;;;;;;13.19;100.00;101502.53;4933513;29;20075;-75
2022/06/19 10:38:08;;;;;;;4.03;2.83;;;;;;;13.15;100.00;101500.66;4930371;29;20059;-75
2022/06/19 10:40:48;;;;;;;3.80;2.10;;;;;;;13.12;100.00;101503.13;4924437;29;20055;-75
2022/06/19 10:43:31;;;;;;;4.00;2.40;;;;;;;13.13;100.00;101498.84;4931035;29;20091;-75
2022/06/19 10:46:07;;;;;;;3.22;2.15;;;;;;;13.17;100.00;101501.59;4934446;29;20044;-75
2022/06/19 10:48:47;;;;;;;4.60;2.55;;;;;;;13.19;100.00;101501.63;4931920;29;20048;-75
2022/06/19 10:51:30;;;;;;;4.05;2.10;;;;;;;13.21;100.00;101508.63;4929636;29;20498;-76
2022/06/19 10:54:12;;;;;;;;;;;;;;;13.20;100.00;101511.19;4932987;28;20307;-75
2022/06/19 10:56:49;;;;;;;3.35;2.13;;;;;;;13.20;100.00;101517.25;4931223;29;19979;-75
2022/06/19 10:59:18;;;;;;;6.55;2.55;;;;;;;13.20;100.00;101513.78;4928810;29;20596;-76
2022/06/19 11:04:49;;;;;;;6.35;2.97;;;;;;;13.18;100.00;101518.94;4929459;29;20158;-74
2022/06/19 11:07:19;;;;;;;4.32;2.13;;;;;;;13.18;100.00;101518.94;4931431;29;20043;-75
2022/06/19 11:09:49;;;;;;;3.60;2.30;;;;;;;13.18;100.00;101518.94;4931617;29;20080;-74
2022/06/19 11:12:23;;;;;;;4.78;2.72;;;;;;;13.17;100.00;101514.59;4936800;29;20051;-74
2022/06/19 11:14:56;;;;;;;5.15;2.40;;;;;;;13.13;100.00;101525.72;4931259;29;20052;-74
2022/06/19 11:17:34;;;;;;;8.18;2.83;;;;;;;13.10;100.00;101525.63;4934704;29;20557;-74
2022/06/19 11:20:25;;;;;;;4.93;2.28;;;;;;;13.11;100.00;101536.88;4925090;29;20519;-75
2022/06/19 11:23:02;;;;;;;6.10;3.00;;;;;;;13.08;100.00;101532.47;4927890;29;20143;-75
2022/06/19 11:25:37;;;;;;;3.70;2.20;;;;;;;13.08;100.00;101532.47;4928895;29;20048;-74
2022/06/19 11:28:11;;;;;;;6.20;3.03;;;;;;;13.08;100.00;101531.56;4925303;29;20048;-75
2022/06/19 11:30:42;;;;;;;5.55;2.20;;;;;;;13.08;100.00;101532.47;4923607;29;20043;-75
2022/06/19 11:33:15;;;;;;;4.82;2.65;;;;;;;13.09;100.00;101525.56;4925511;29;20047;-76
2022/06/19 11:35:48;;;;;;;7.57;2.80;;;;;;;13.08;100.00;101523.78;4930086;29;20482;-75
2022/06/19 11:38:19;;;;;;;4.53;2.08;;;;;;;13.08;100.00;101529.88;4929253;29;20486;-75
2022/06/19 11:40:49;;;;;;;5.28;2.63;;;;;;;13.07;100.00;101522.91;4929331;29;20048;-76
2022/06/19 11:43:33;;;;;;;3.58;1.83;;;;;;;13.08;100.00;101532.47;4932431;29;20055;-75
2022/06/19 11:46:04;;;;;;;4.15;2.30;;;;;;;13.05;100.00;101529.75;4927283;29;20070;-75
2022/06/19 11:48:35;;;;;;;7.25;2.15;;;;;;;13.04;100.00;101529.75;4929138;29;20058;-75
2022/06/19 11:51:05;;;;;;;3.97;2.20;;;;;;;13.02;100.00;101526.22;4930431;29;20486;-76
2022/06/19 11:53:41;;;;;;;4.50;2.05;;;;;;;12.99;100.00;101532.19;4934310;28;20605;-75
2022/06/19 11:56:23;;;;;;;5.88;1.85;;;;;;;13.02;100.00;101547.00;4933124;29;20670;-75
2022/06/19 11:58:56;;;;;;;4.30;2.15;;;;;;;13.03;100.00;101539.22;4921916;29;20108;-75